Time;durP1;ratioP1;P1;durP2;ratioP2;P2;SDS_P1;SDS_P2;PMS_P1;PMS_P2;Temp;Humidity;BMP_temperature;BMP_pressure;BME280_temperature;BME280_humidity;BME280_pressure;Samples;Min_cycle;Max_cycle;Signal;HPM_P1;HPM_P2
2022/08/25 00:01:46;;;;;;;6.68;1.80;;;22.10;73.90;;;;;;5046649;28;20044;-65
2022/08/25 00:04:14;;;;;;;4.63;2.30;;;22.00;74.70;;;;;;5030676;28;20051;-65
2022/08/25 00:06:41;;;;;;;5.80;1.60;;;22.00;76.10;;;;;;5050328;28;20049;-65
2022/08/25 00:09:08;;;;;;;2.22;1.65;;;21.90;78.00;;;;;;5048129;28;20379;-66
2022/08/25 00:11:36;;;;;;;3.28;2.15;;;21.80;77.90;;;;;;5049461;28;20041;-65
2022/08/25 00:14:05;;;;;;;8.55;1.83;;;21.80;78.40;;;;;;5049602;28;20470;-65
2022/08/25 00:16:32;;;;;;;3.40;1.90;;;21.70;79.10;;;;;;5047224;28;20033;-65
2022/08/25 00:19:00;;;;;;;9.75;2.33;;;21.60;81.20;;;;;;5049449;28;20069;-65
2022/08/25 00:21:27;;;;;;;3.53;1.80;;;21.50;83.50;;;;;;5051536;28;20407;-65
2022/08/25 00:23:53;;;;;;;5.93;1.95;;;21.40;85.10;;;;;;5049640;28;20315;-65
2022/08/25 00:26:19;;;;;;;4.97;1.75;;;21.30;87.80;;;;;;5051365;28;20047;-65
2022/08/25 00:28:45;;;;;;;8.35;2.08;;;21.20;89.40;;;;;;5052266;28;20049;-65
2022/08/25 00:31:14;;;;;;;10.00;2.00;;;21.20;88.10;;;;;;5050530;28;20182;-65
2022/08/25 00:33:41;;;;;;;;;;;21.20;89.20;;;;;;5048909;28;20049;-66
2022/08/25 00:36:10;;;;;;;6.45;2.25;;;21.10;88.90;;;;;;5050864;28;20015;-65
2022/08/25 00:38:40;;;;;;;4.72;1.85;;;21.20;90.30;;;;;;5051067;28;20029;-66
2022/08/25 00:41:07;;;;;;;7.95;1.92;;;21.10;88.50;;;;;;5050185;28;20619;-65
2022/08/25 00:43:45;;;;;;;5.28;1.90;;;21.10;89.70;;;;;;5051320;28;20560;-65
2022/08/25 00:46:17;;;;;;;7.40;1.80;;;21.00;88.80;;;;;;5048754;28;20045;-65
2022/08/25 00:48:46;;;;;;;4.32;2.22;;;21.00;90.10;;;;;;5050157;28;20037;-65
2022/08/25 00:51:15;;;;;;;5.93;2.00;;;20.90;90.10;;;;;;5051965;28;20058;-66
2022/08/25 00:53:41;;;;;;;;;;;20.90;89.70;;;;;;5051350;28;20535;-65
2022/08/25 00:56:06;;;;;;;5.63;1.85;;;20.90;88.60;;;;;;5048775;28;19987;-65
2022/08/25 00:58:34;;;;;;;5.70;1.67;;;20.90;90.00;;;;;;5049717;28;20155;-65
2022/08/25 01:01:00;;;;;;;6.93;2.10;;;20.90;89.60;;;;;;5051091;28;20501;-70
2022/08/25 01:03:29;;;;;;;5.53;2.00;;;20.80;90.90;;;;;;5051674;28;20129;-65
2022/08/25 01:05:55;;;;;;;3.40;1.50;;;20.70;90.40;;;;;;5049652;28;20488;-66
2022/08/25 01:08:26;;;;;;;8.10;2.33;;;20.70;91.30;;;;;;5048880;28;20056;-65
2022/08/25 01:10:53;;;;;;;6.35;2.30;;;20.60;91.00;;;;;;5049808;28;20036;-65
2022/08/25 01:13:27;;;;;;;8.57;2.15;;;20.60;90.90;;;;;;5048100;28;20056;-65
2022/08/25 01:15:55;;;;;;;4.95;2.08;;;20.60;91.00;;;;;;5048568;28;20499;-70
2022/08/25 01:18:22;;;;;;;5.70;1.90;;;20.60;92.30;;;;;;5049635;28;20403;-65
2022/08/25 01:21:05;;;;;;;2.90;2.20;;;20.50;93.40;;;;;;5047313;28;20053;-65
2022/08/25 01:23:31;;;;;;;3.63;1.77;;;20.50;93.70;;;;;;5047285;28;20506;-73
2022/08/25 01:26:09;;;;;;;4.35;1.80;;;20.50;93.90;;;;;;5046183;28;20033;-65
2022/08/25 01:28:35;;;;;;;6.10;2.28;;;20.50;92.90;;;;;;5050097;28;20049;-65
2022/08/25 01:31:01;;;;;;;3.00;2.05;;;20.50;93.30;;;;;;5045989;28;20049;-66
2022/08/25 01:33:27;;;;;;;8.77;1.92;;;20.40;91.80;;;;;;5045541;28;20041;-65
2022/08/25 01:35:53;;;;;;;6.57;2.13;;;20.50;91.10;;;;;;5049001;28;20052;-66
2022/08/25 01:38:19;;;;;;;3.15;1.60;;;20.50;91.70;;;;;;5050591;28;20548;-66
2022/08/25 01:40:45;;;;;;;5.05;2.25;;;20.50;87.60;;;;;;5052881;28;20497;-71
2022/08/25 01:43:16;;;;;;;3.15;2.00;;;20.50;89.00;;;;;;5048984;28;20041;-65
2022/08/25 01:45:45;;;;;;;12.35;2.83;;;20.50;87.30;;;;;;5052415;28;20049;-65
2022/08/25 01:48:11;;;;;;;5.07;1.88;;;20.50;85.50;;;;;;5050496;28;20120;-65
2022/08/25 01:50:38;;;;;;;6.35;2.45;;;20.50;87.50;;;;;;5051382;28;20549;-65
2022/08/25 01:53:31;;;;;;;6.47;1.92;;;20.40;87.70;;;;;;5049586;28;20094;-65
2022/08/25 01:56:04;;;;;;;2.00;1.83;;;20.40;86.30;;;;;;5050783;28;20122;-65
2022/08/25 01:58:33;;;;;;;5.75;2.30;;;20.40;86.30;;;;;;5052155;28;20388;-66
2022/08/25 02:01:01;;;;;;;11.05;2.42;;;20.30;87.30;;;;;;5049764;28;20621;-65
2022/08/25 02:03:28;;;;;;;8.75;2.35;;;20.20;88.30;;;;;;5051057;28;20043;-65
2022/08/25 02:05:55;;;;;;;7.07;2.13;;;20.20;90.00;;;;;;5050706;28;20061;-66
2022/08/25 02:08:22;;;;;;;7.85;2.30;;;20.20;88.40;;;;;;5052002;28;20102;-65
2022/08/25 02:10:48;;;;;;;6.47;2.20;;;20.20;90.00;;;;;;5049061;28;20063;-65
2022/08/25 02:13:14;;;;;;;6.43;2.08;;;20.20;88.60;;;;;;5052835;28;20075;-65
2022/08/25 02:15:48;;;;;;;3.28;2.10;;;20.10;88.60;;;;;;5051244;28;20090;-66
2022/08/25 02:18:14;;;;;;;6.45;2.10;;;20.10;90.60;;;;;;5050885;28;20366;-65
2022/08/25 02:20:40;;;;;;;6.72;2.10;;;20.10;89.20;;;;;;5050261;28;20116;-65
2022/08/25 02:23:06;;;;;;;5.43;2.28;;;20.00;90.20;;;;;;5050528;28;20530;-66
2022/08/25 02:25:32;;;;;;;7.32;2.10;;;20.00;90.20;;;;;;5049590;28;20036;-65
2022/08/25 02:27:58;;;;;;;5.32;2.38;;;20.00;91.00;;;;;;5049244;28;20088;-65
2022/08/25 02:30:25;;;;;;;6.72;2.13;;;20.00;91.10;;;;;;5054671;28;20111;-65
2022/08/25 02:32:51;;;;;;;6.15;2.45;;;20.00;91.00;;;;;;5053324;28;20044;-65
2022/08/25 02:35:17;;;;;;;5.38;2.47;;;19.90;91.40;;;;;;5055369;28;20076;-65
2022/08/25 02:37:43;;;;;;;5.35;2.67;;;19.90;91.80;;;;;;5051649;28;20095;-65
2022/08/25 02:40:10;;;;;;;5.00;2.20;;;19.90;92.20;;;;;;5049836;28;20033;-65
2022/08/25 02:42:35;;;;;;;7.78;2.42;;;19.80;92.50;;;;;;5050368;28;20040;-65
2022/08/25 02:45:01;;;;;;;9.95;2.38;;;19.80;93.10;;;;;;5050761;28;20044;-65
2022/08/25 02:47:28;;;;;;;6.70;2.20;;;19.80;93.50;;;;;;5047521;28;20152;-65
2022/08/25 02:49:54;;;;;;;5.82;2.67;;;19.70;94.10;;;;;;5051219;28;20049;-65
2022/08/25 02:52:20;;;;;;;6.97;2.80;;;19.60;95.00;;;;;;5049650;28;20524;-65
2022/08/25 02:54:45;;;;;;;7.10;2.60;;;19.60;95.60;;;;;;5051732;28;20123;-65
2022/08/25 02:57:11;;;;;;;5.88;2.58;;;19.50;97.10;;;;;;5051337;28;20045;-65
2022/08/25 02:59:38;;;;;;;6.85;2.80;;;19.40;97.20;;;;;;5046768;28;20072;-65
2022/08/25 03:02:05;;;;;;;7.70;2.75;;;19.40;97.80;;;;;;5047146;28;20040;-65
2022/08/25 03:04:31;;;;;;;5.15;2.58;;;19.30;98.60;;;;;;5055155;28;20041;-65
2022/08/25 03:06:57;;;;;;;3.35;2.47;;;19.30;99.40;;;;;;5051049;28;20041;-65
2022/08/25 03:09:25;;;;;;;2.88;2.45;;;19.30;99.70;;;;;;5053316;28;20065;-65
2022/08/25 03:11:51;;;;;;;5.85;2.38;;;19.30;99.90;;;;;;5056012;28;20093;-65
2022/08/25 03:14:16;;;;;;;6.97;3.03;;;19.30;99.90;;;;;;5053394;28;20037;-65
2022/08/25 03:16:43;;;;;;;7.75;2.55;;;19.30;99.90;;;;;;5054124;28;20141;-65
2022/08/25 03:19:09;;;;;;;5.00;3.10;;;19.30;99.90;;;;;;5049007;28;20052;-65
2022/08/25 03:21:38;;;;;;;9.75;2.60;;;19.20;99.90;;;;;;5050563;28;20103;-66
2022/08/25 03:24:05;;;;;;;8.88;2.72;;;19.20;99.80;;;;;;5047616;28;20505;-65
2022/08/25 03:29:16;;;;;;;5.82;2.67;;;19.20;99.90;;;;;;5048574;28;20040;-66
2022/08/25 03:31:43;;;;;;;4.38;2.63;;;19.30;99.20;;;;;;5048530;28;20041;-66
2022/08/25 03:34:15;;;;;;;5.75;2.92;;;19.30;99.60;;;;;;5048435;28;20150;-66
2022/08/25 03:36:42;;;;;;;9.73;3.05;;;19.30;99.10;;;;;;5049828;28;20052;-65
2022/08/25 03:39:08;;;;;;;11.95;3.55;;;19.30;98.50;;;;;;5048862;28;20057;-66
2022/08/25 03:41:34;;;;;;;9.20;2.58;;;19.30;99.10;;;;;;5048454;28;20436;-65
2022/08/25 03:44:02;;;;;;;9.63;3.00;;;19.30;98.80;;;;;;5048218;28;20127;-65
2022/08/25 03:46:36;;;;;;;5.18;2.80;;;19.30;99.00;;;;;;5048903;28;20041;-65
2022/08/25 03:49:05;;;;;;;4.28;2.50;;;19.30;98.80;;;;;;5047319;28;20052;-65
2022/08/25 03:51:34;;;;;;;5.15;2.70;;;19.30;99.30;;;;;;5047514;28;20028;-65
2022/08/25 03:54:02;;;;;;;7.47;3.42;;;19.30;99.30;;;;;;5047097;28;20499;-66
2022/08/25 03:56:28;;;;;;;7.05;2.67;;;19.30;99.70;;;;;;5047416;28;20098;-65
2022/08/25 03:58:55;;;;;;;4.75;2.28;;;19.20;99.40;;;;;;5048213;28;20534;-65
2022/08/25 04:01:22;;;;;;;3.08;2.53;;;19.20;99.80;;;;;;5047575;28;20102;-66
2022/08/25 04:03:48;;;;;;;6.53;3.28;;;19.20;99.50;;;;;;5047353;28;20119;-65
2022/08/25 04:06:16;;;;;;;3.72;3.22;;;19.30;99.00;;;;;;5048807;28;20123;-65
2022/08/25 04:08:41;;;;;;;9.13;3.42;;;19.30;98.90;;;;;;5046690;28;20045;-65
2022/08/25 04:11:10;;;;;;;6.35;3.50;;;19.30;99.00;;;;;;5048412;28;20049;-65
2022/08/25 04:13:36;;;;;;;6.17;2.77;;;19.30;98.80;;;;;;5049694;28;20041;-65
2022/08/25 04:16:09;;;;;;;6.78;3.35;;;19.30;98.50;;;;;;5049638;28;20032;-65
2022/08/25 04:18:35;;;;;;;3.42;2.72;;;19.30;98.90;;;;;;5049228;28;20124;-65
2022/08/25 04:21:05;;;;;;;6.85;2.92;;;19.30;99.20;;;;;;5050596;28;20168;-65
2022/08/25 04:23:31;;;;;;;11.75;3.13;;;19.30;99.30;;;;;;5048507;28;20518;-66
2022/08/25 04:25:57;;;;;;;9.10;3.17;;;19.20;99.20;;;;;;5049996;28;20047;-65
2022/08/25 04:28:22;;;;;;;6.25;3.05;;;19.20;99.80;;;;;;5047334;28;20100;-66
2022/08/25 04:30:48;;;;;;;7.40;3.40;;;19.20;99.90;;;;;;5048827;28;20113;-65
2022/08/25 04:33:14;;;;;;;7.82;3.53;;;19.20;99.90;;;;;;5048208;28;20098;-65
2022/08/25 04:35:40;;;;;;;10.02;3.33;;;19.10;99.90;;;;;;5048982;28;20057;-66
2022/08/25 04:38:06;;;;;;;4.15;3.35;;;19.10;99.90;;;;;;5047424;28;20047;-65
2022/08/25 04:40:32;;;;;;;7.40;3.78;;;19.10;99.90;;;;;;5048372;28;20475;-66
2022/08/25 04:42:58;;;;;;;5.18;3.35;;;19.10;99.90;;;;;;5046503;28;20053;-66
2022/08/25 04:45:23;;;;;;;5.72;3.40;;;19.10;99.90;;;;;;5047811;28;20033;-65
2022/08/25 04:47:49;;;;;;;10.20;3.47;;;19.10;99.90;;;;;;5049037;28;20053;-65
2022/08/25 04:50:15;;;;;;;16.75;3.30;;;19.10;99.90;;;;;;5047731;28;20365;-66
2022/08/25 04:52:41;;;;;;;6.18;3.53;;;19.10;99.90;;;;;;5048404;28;20068;-65
2022/08/25 04:55:07;;;;;;;7.47;3.60;;;19.10;99.90;;;;;;5045776;28;20040;-65
2022/08/25 04:57:33;;;;;;;7.63;3.80;;;19.00;99.90;;;;;;5047966;28;20052;-66
2022/08/25 04:59:58;;;;;;;10.52;3.70;;;19.00;99.90;;;;;;5047075;28;20499;-65
2022/08/25 05:02:24;;;;;;;16.23;4.20;;;19.00;99.90;;;;;;5046518;28;20037;-65
2022/08/25 05:04:50;;;;;;;5.18;3.40;;;19.00;99.90;;;;;;5046367;28;20045;-65
2022/08/25 05:07:16;;;;;;;9.60;4.10;;;19.00;99.90;;;;;;5046843;28;20036;-65
2022/08/25 05:09:41;;;;;;;5.50;3.80;;;19.00;99.90;;;;;;5046760;28;20052;-65
2022/08/25 05:12:08;;;;;;;8.63;3.42;;;19.00;99.90;;;;;;5051437;28;20049;-65
2022/08/25 05:14:34;;;;;;;8.80;3.42;;;19.00;99.90;;;;;;5052161;28;20056;-65
2022/08/25 05:17:00;;;;;;;9.63;4.07;;;19.00;99.90;;;;;;5053689;28;20049;-65
2022/08/25 05:19:26;;;;;;;5.60;3.60;;;19.00;99.90;;;;;;5056345;28;20470;-65
2022/08/25 05:21:52;;;;;;;6.15;3.60;;;19.00;99.90;;;;;;5051468;28;20040;-66
2022/08/25 05:24:18;;;;;;;4.45;3.30;;;19.10;99.90;;;;;;5054036;28;20537;-66
2022/08/25 05:26:44;;;;;;;6.75;3.60;;;19.10;99.90;;;;;;5052139;28;20052;-65
2022/08/25 05:29:10;;;;;;;5.75;3.10;;;19.10;99.90;;;;;;5050696;28;20061;-65
2022/08/25 05:31:36;;;;;;;9.07;3.88;;;19.20;99.90;;;;;;5051481;28;20091;-66
2022/08/25 05:34:06;;;;;;;13.82;3.50;;;19.20;99.90;;;;;;5052144;28;20048;-65
2022/08/25 05:36:33;;;;;;;10.68;4.10;;;19.30;99.90;;;;;;5048320;28;20043;-65
2022/08/25 05:38:59;;;;;;;6.90;3.67;;;19.30;99.90;;;;;;5051076;28;20045;-65
2022/08/25 05:41:28;;;;;;;12.75;3.90;;;19.30;99.90;;;;;;5051995;28;20106;-65
2022/08/25 05:43:54;;;;;;;7.75;3.85;;;19.30;99.90;;;;;;5050778;28;20054;-65
2022/08/25 05:46:21;;;;;;;11.73;4.35;;;19.40;99.90;;;;;;5052595;28;20045;-65
2022/08/25 05:48:47;;;;;;;7.53;3.75;;;19.40;99.90;;;;;;5051639;28;20045;-65
2022/08/25 05:51:14;;;;;;;14.05;3.97;;;19.40;99.90;;;;;;5052589;28;20503;-66
2022/08/25 05:53:42;;;;;;;11.60;3.95;;;19.50;99.90;;;;;;5050765;28;20049;-66
2022/08/25 05:56:09;;;;;;;7.25;3.58;;;19.40;99.90;;;;;;5052986;28;20391;-66
2022/08/25 05:58:36;;;;;;;10.05;4.28;;;19.50;99.90;;;;;;5050218;28;20263;-66
2022/08/25 06:03:47;;;;;;;9.77;4.10;;;19.50;99.90;;;;;;5050673;28;20037;-65
2022/08/25 06:06:14;;;;;;;12.27;4.72;;;19.60;99.90;;;;;;5050650;28;20095;-65
2022/08/25 06:08:40;;;;;;;5.22;3.80;;;19.60;99.90;;;;;;5049931;28;20043;-65
2022/08/25 06:11:06;;;;;;;6.70;4.20;;;19.60;99.90;;;;;;5047481;28;20128;-66
2022/08/25 06:13:32;;;;;;;9.43;4.32;;;19.60;99.90;;;;;;5051084;28;20468;-65
2022/08/25 06:15:59;;;;;;;8.27;4.30;;;19.70;99.90;;;;;;5049015;28;20052;-66
2022/08/25 06:18:25;;;;;;;6.68;4.28;;;19.70;99.90;;;;;;5050917;28;20059;-66
2022/08/25 06:20:51;;;;;;;7.55;3.75;;;19.70;99.90;;;;;;5048215;28;20471;-65
2022/08/25 06:23:19;;;;;;;13.05;4.53;;;19.80;99.90;;;;;;5031320;28;20403;-65
2022/08/25 06:25:50;;;;;;;7.82;4.30;;;19.80;99.90;;;;;;5048520;28;20049;-65
2022/08/25 06:28:16;;;;;;;8.50;4.07;;;19.90;99.90;;;;;;5047233;28;20080;-65
2022/08/25 06:30:41;;;;;;;10.85;4.03;;;20.00;99.90;;;;;;5050409;28;20072;-65
2022/08/25 06:33:07;;;;;;;4.78;4.35;;;20.00;99.90;;;;;;5048032;28;20079;-65
2022/08/25 06:35:33;;;;;;;11.93;4.32;;;20.10;99.90;;;;;;5049445;28;20053;-66
2022/08/25 06:37:59;;;;;;;7.18;4.43;;;20.10;99.90;;;;;;5048024;28;20037;-65
2022/08/25 06:40:24;;;;;;;7.18;4.50;;;20.20;99.90;;;;;;5048975;28;20120;-65
2022/08/25 06:42:50;;;;;;;14.63;4.55;;;20.20;99.90;;;;;;5048313;28;20498;-65
2022/08/25 06:45:16;;;;;;;8.27;4.68;;;20.20;99.90;;;;;;5049197;28;20044;-65
2022/08/25 06:47:42;;;;;;;7.57;4.53;;;20.30;99.50;;;;;;5047488;28;20078;-65
2022/08/25 06:50:09;;;;;;;10.20;4.15;;;20.40;99.90;;;;;;5046367;28;20049;-65
2022/08/25 06:52:35;;;;;;;7.75;4.57;;;20.50;99.70;;;;;;5049753;28;20403;-66
2022/08/25 06:55:01;;;;;;;10.73;4.47;;;20.60;99.90;;;;;;5046480;28;20060;-65
2022/08/25 06:57:27;;;;;;;11.48;4.80;;;20.60;99.30;;;;;;5047127;28;20048;-66
2022/08/25 06:59:52;;;;;;;8.45;4.68;;;20.70;99.60;;;;;;5047120;28;20045;-65
2022/08/25 07:02:19;;;;;;;12.48;4.90;;;20.80;98.70;;;;;;5048529;28;20391;-65
2022/08/25 07:04:45;;;;;;;8.30;5.30;;;20.90;99.60;;;;;;5029412;28;20041;-65
2022/08/25 07:07:11;;;;;;;6.85;4.63;;;21.10;98.40;;;;;;5047340;28;20492;-69
2022/08/25 07:09:36;;;;;;;8.80;4.57;;;21.30;95.70;;;;;;5049836;28;20164;-65
2022/08/25 07:12:03;;;;;;;8.02;4.45;;;21.60;96.80;;;;;;5048972;28;20052;-74
2022/08/25 07:14:29;;;;;;;5.88;4.47;;;21.80;92.90;;;;;;5050067;28;20041;-65
2022/08/25 07:16:54;;;;;;;11.75;5.25;;;22.10;91.70;;;;;;5045173;28;20045;-65
2022/08/25 07:19:20;;;;;;;9.10;4.32;;;22.30;91.20;;;;;;5053112;28;20503;-65
2022/08/25 07:21:49;;;;;;;7.50;4.85;;;22.50;89.10;;;;;;5050538;28;20044;-65
2022/08/25 07:24:15;;;;;;;7.25;4.78;;;22.70;84.70;;;;;;5052654;28;20128;-65
2022/08/25 07:26:42;;;;;;;6.72;4.82;;;22.90;79.70;;;;;;5050669;28;20084;-76
2022/08/25 07:29:14;;;;;;;12.88;5.55;;;23.00;81.70;;;;;;5054186;28;20076;-65
2022/08/25 07:31:41;;;;;;;11.38;4.93;;;23.20;79.50;;;;;;5049163;28;20075;-65
2022/08/25 07:37:09;;;;;;;5.50;4.40;;;23.30;76.00;;;;;;5006544;28;20488;-65
2022/08/25 07:39:35;;;;;;;10.48;5.40;;;23.60;76.60;;;;;;5035567;28;20110;-63
2022/08/25 07:42:00;;;;;;;11.05;5.25;;;23.70;76.60;;;;;;5047773;28;20049;-64
2022/08/25 07:44:27;;;;;;;12.88;4.80;;;23.90;74.00;;;;;;5045859;28;20144;-65
2022/08/25 07:46:53;;;;;;;9.43;4.20;;;24.10;71.50;;;;;;5046876;28;20518;-64
2022/08/25 07:49:20;;;;;;;7.35;4.15;;;24.30;72.20;;;;;;5046736;28;20498;-64
2022/08/25 07:51:46;;;;;;;12.32;4.18;;;24.40;66.20;;;;;;5044411;28;20053;-64
2022/08/25 07:54:12;;;;;;;12.40;4.20;;;24.50;69.60;;;;;;5047309;28;20091;-82
2022/08/25 07:56:40;;;;;;;6.70;4.78;;;24.80;66.50;;;;;;5042707;28;20037;-64
2022/08/25 07:59:06;;;;;;;17.77;5.07;;;25.00;63.50;;;;;;5045113;28;20095;-64
2022/08/25 08:01:32;;;;;;;12.15;4.45;;;25.00;62.00;;;;;;5045406;28;20124;-64
2022/08/25 08:03:58;;;;;;;10.13;4.65;;;24.90;61.60;;;;;;5045644;28;20986;-64
2022/08/25 08:06:24;;;;;;;11.23;4.80;;;25.00;61.30;;;;;;5028751;28;20140;-85
2022/08/25 08:08:52;;;;;;;16.95;4.93;;;25.10;60.10;;;;;;5043802;28;20041;-63
2022/08/25 08:11:25;;;;;;;9.20;4.50;;;25.10;65.10;;;;;;5034276;28;20044;-64
2022/08/25 08:13:53;;;;;;;11.40;4.53;;;25.20;59.70;;;;;;5046351;28;20483;-78
2022/08/25 08:16:21;;;;;;;14.77;5.72;;;25.30;60.10;;;;;;5047323;28;20084;-63
2022/08/25 08:18:47;;;;;;;12.70;4.43;;;25.40;57.30;;;;;;5045201;28;20102;-63
2022/08/25 08:21:17;;;;;;;8.93;4.53;;;25.40;61.40;;;;;;5046928;28;20041;-65
2022/08/25 08:23:43;;;;;;;12.48;4.18;;;25.60;58.60;;;;;;5046109;28;20048;-89
2022/08/25 08:26:09;;;;;;;16.20;4.25;;;25.80;57.20;;;;;;5045710;28;20052;-65
2022/08/25 08:28:35;;;;;;;8.70;4.35;;;25.90;52.00;;;;;;5044939;28;20495;-65
2022/08/25 08:31:01;;;;;;;17.67;4.60;;;25.90;58.00;;;;;;5044972;28;20060;-65
2022/08/25 08:33:27;;;;;;;11.85;5.07;;;26.00;57.90;;;;;;5046943;28;20487;-65
2022/08/25 08:36:03;;;;;;;6.18;4.07;;;26.00;53.10;;;;;;5043955;28;20041;-64
2022/08/25 08:38:28;;;;;;;16.25;5.05;;;26.00;53.70;;;;;;5045645;28;20032;-86
2022/08/25 08:44:28;;;;;;;13.68;4.30;;;26.20;54.00;;;;;;5022523;28;20060;-65
2022/08/25 08:47:14;;;;;;;12.82;4.18;;;26.30;56.00;;;;;;5045333;28;20518;-65
2022/08/25 08:49:55;;;;;;;11.05;4.10;;;26.50;46.90;;;;;;5044425;28;20499;-65
2022/08/25 08:52:31;;;;;;;14.00;4.18;;;26.50;47.40;;;;;;5043717;28;20045;-65
2022/08/25 08:55:02;;;;;;;28.80;4.72;;;26.70;58.20;;;;;;5045491;28;20124;-89
2022/08/25 08:57:29;;;;;;;11.18;4.53;;;26.70;48.70;;;;;;5044293;28;20140;-65
2022/08/25 08:59:59;;;;;;;38.40;4.45;;;26.70;44.40;;;;;;5044175;28;20048;-65
2022/08/25 09:02:45;;;;;;;13.18;4.15;;;26.80;46.60;;;;;;5047845;28;20442;-64
2022/08/25 09:05:15;;;;;;;17.88;4.25;;;26.90;44.40;;;;;;5050051;28;20033;-78
2022/08/25 09:08:06;;;;;;;13.38;4.57;;;26.90;43.70;;;;;;5049612;28;20565;-80
2022/08/25 09:10:57;;;;;;;6.82;3.50;;;27.00;46.10;;;;;;5050016;28;20053;-86
2022/08/25 09:14:01;;;;;;;10.75;4.10;;;27.00;46.70;;;;;;5049437;28;20461;-65
2022/08/25 09:19:39;;;;;;;10.85;3.88;;;26.90;43.60;;;;;;5050845;28;20095;-65
2022/08/25 09:22:26;;;;;;;12.52;3.63;;;27.10;45.50;;;;;;5046610;28;20037;-73
2022/08/25 09:25:10;;;;;;;10.65;3.90;;;27.20;40.20;;;;;;5041486;28;20037;-65
2022/08/25 09:27:37;;;;;;;8.52;3.90;;;27.30;38.70;;;;;;5045271;28;20060;-65
2022/08/25 09:30:09;;;;;;;12.27;4.40;;;27.40;34.80;;;;;;5049487;28;20052;-66
2022/08/25 09:32:41;;;;;;;15.88;4.25;;;27.40;37.90;;;;;;5041679;28;20037;-68
2022/08/25 09:35:27;;;;;;;10.98;3.88;;;27.40;39.60;;;;;;5047908;28;20136;-65
2022/08/25 09:38:09;;;;;;;18.05;4.43;;;27.40;41.00;;;;;;5045663;28;20056;-66
2022/08/25 09:40:39;;;;;;;9.70;3.83;;;27.40;39.90;;;;;;5045728;28;20114;-92
2022/08/25 09:43:37;;;;;;;5.97;3.45;;;27.40;45.10;;;;;;5046548;28;20124;-65
2022/08/25 09:46:15;;;;;;;12.50;3.67;;;27.30;40.00;;;;;;5031213;28;20056;-65
2022/08/25 09:48:52;;;;;;;13.77;3.67;;;27.50;41.50;;;;;;5044327;28;20048;-66
2022/08/25 09:51:25;;;;;;;12.20;3.88;;;27.60;35.70;;;;;;5045316;28;20399;-66
2022/08/25 09:54:15;;;;;;;11.02;3.50;;;27.60;45.90;;;;;;5042350;28;20150;-66
2022/08/25 09:56:54;;;;;;;9.68;3.88;;;27.70;44.20;;;;;;5044105;28;20049;-66
2022/08/25 09:59:33;;;;;;;10.82;3.47;;;27.70;34.30;;;;;;5028510;28;20124;-94
2022/08/25 10:02:19;;;;;;;7.28;3.08;;;27.80;35.80;;;;;;5044463;28;20037;-66
2022/08/25 10:04:45;;;;;;;7.28;3.88;;;27.90;43.40;;;;;;5047680;28;20116;-65
2022/08/25 10:07:34;;;;;;;9.60;3.72;;;28.00;34.80;;;;;;5046367;28;20127;-66
2022/08/25 10:10:06;;;;;;;12.30;3.80;;;28.00;34.40;;;;;;5047097;28;20398;-66
2022/08/25 10:12:45;;;;;;;6.57;2.75;;;27.90;31.00;;;;;;5047766;28;20041;-91
2022/08/25 10:15:34;;;;;;;10.02;3.50;;;28.00;38.00;;;;;;5044353;28;20045;-67
2022/08/25 10:18:15;;;;;;;;;;;28.10;36.50;;;;;;5048031;28;20049;-67
2022/08/25 10:20:41;;;;;;;8.52;2.97;;;28.20;31.40;;;;;;5048272;28;19983;-65
2022/08/25 10:23:13;;;;;;;16.52;3.33;;;28.30;32.80;;;;;;5047661;28;20360;-66
2022/08/25 10:25:48;;;;;;;5.15;3.03;;;28.30;29.50;;;;;;5044429;28;20084;-65
2022/08/25 10:28:24;;;;;;;8.98;3.45;;;28.30;30.10;;;;;;5049567;28;20071;-66
2022/08/25 10:31:18;;;;;;;5.97;3.13;;;28.40;31.50;;;;;;5049359;28;20056;-66
2022/08/25 10:33:46;;;;;;;5.05;3.05;;;28.60;32.40;;;;;;5038354;28;20056;-66
2022/08/25 10:36:47;;;;;;;6.93;3.17;;;28.60;28.90;;;;;;5047767;28;20056;-65
2022/08/25 10:39:35;;;;;;;5.82;3.15;;;28.40;25.70;;;;;;5034894;28;20049;-65
2022/08/25 10:42:28;;;;;;;7.65;2.90;;;28.40;26.70;;;;;;5047285;28;20056;-67
2022/08/25 10:47:59;;;;;;;7.40;2.70;;;28.60;24.20;;;;;;5048309;28;20126;-65
2022/08/25 10:50:36;;;;;;;5.25;2.30;;;28.60;22.50;;;;;;5037534;28;20391;-65
2022/08/25 10:53:17;;;;;;;7.22;2.58;;;28.50;22.70;;;;;;5048381;28;20037;-65
2022/08/25 10:56:15;;;;;;;9.43;2.72;;;28.50;23.60;;;;;;5048673;28;20049;-65
2022/08/25 10:58:44;;;;;;;4.22;2.20;;;28.40;23.70;;;;;;5043571;28;20055;-65
2022/08/25 11:01:28;;;;;;;11.30;2.80;;;28.50;19.90;;;;;;5046463;28;20132;-65
2022/08/25 11:04:09;;;;;;;4.97;2.20;;;28.60;20.60;;;;;;5047138;28;20107;-74
2022/08/25 11:06:54;;;;;;;5.18;2.42;;;28.70;19.30;;;;;;5046123;28;20072;-65
2022/08/25 11:09:24;;;;;;;9.00;3.08;;;28.70;18.10;;;;;;5040739;28;20053;-65
2022/08/25 11:11:56;;;;;;;10.35;2.88;;;28.70;20.00;;;;;;5046774;28;20064;-65
2022/08/25 11:14:29;;;;;;;8.15;2.17;;;28.80;16.90;;;;;;5048058;28;20049;-65
2022/08/25 11:17:08;;;;;;;4.38;2.08;;;28.80;15.80;;;;;;5047415;28;20041;-65
2022/08/25 11:19:38;;;;;;;12.43;2.50;;;28.70;21.50;;;;;;5045937;28;20049;-64
2022/08/25 11:22:16;;;;;;;12.65;2.80;;;28.80;22.30;;;;;;5048077;28;20048;-65
2022/08/25 11:25:10;;;;;;;9.07;2.05;;;28.80;16.40;;;;;;5046413;28;20055;-72
2022/08/25 11:27:46;;;;;;;4.50;2.22;;;28.90;20.30;;;;;;5043364;28;20049;-65
2022/08/25 11:30:16;;;;;;;5.13;2.50;;;29.10;16.50;;;;;;5047475;28;20049;-65
2022/08/25 11:32:46;;;;;;;5.85;2.40;;;29.10;15.20;;;;;;5045205;28;20055;-65
2022/08/25 11:35:15;;;;;;;6.10;2.85;;;29.00;16.50;;;;;;5047558;28;20057;-65
2022/08/25 11:38:04;;;;;;;;;;;28.90;16.20;;;;;;5043897;28;20043;-79
2022/08/25 11:40:52;;;;;;;11.98;2.42;;;28.90;17.20;;;;;;5044105;28;20002;-67
2022/08/25 11:43:36;;;;;;;6.88;2.45;;;29.10;17.80;;;;;;5052100;28;20052;-65
2022/08/25 11:46:18;;;;;;;14.60;2.70;;;29.20;16.10;;;;;;5050002;28;20048;-66
2022/08/25 11:49:30;;;;;;;4.72;2.40;;;29.10;13.00;;;;;;5055540;28;20049;-66
2022/08/25 11:51:57;;;;;;;14.93;2.15;;;29.10;12.30;;;;;;5048888;28;20045;-68
2022/08/25 11:54:26;;;;;;;9.38;2.88;;;29.10;14.50;;;;;;5046076;28;20103;-66
2022/08/25 11:57:01;;;;;;;4.82;1.98;;;29.10;13.50;;;;;;5048089;28;20047;-65
2022/08/25 11:59:48;;;;;;;6.40;2.03;;;29.10;11.50;;;;;;5048025;28;20220;-66
2022/08/25 12:02:50;;;;;;;7.43;2.45;;;29.00;11.20;;;;;;5039652;28;20047;-69
2022/08/25 12:05:18;;;;;;;12.88;2.53;;;28.90;13.50;;;;;;4964328;28;20054;-84
2022/08/25 12:07:47;;;;;;;7.03;2.17;;;29.00;13.90;;;;;;5032426;28;20107;-72
2022/08/25 12:10:24;;;;;;;5.25;2.47;;;29.10;16.20;;;;;;5047418;28;20552;-88
2022/08/25 12:12:57;;;;;;;16.55;2.55;;;29.10;13.40;;;;;;5045598;28;20055;-65
2022/08/25 12:15:28;;;;;;;14.82;2.88;;;29.10;15.90;;;;;;5048602;28;20554;-65
2022/08/25 12:18:15;;;;;;;5.70;2.72;;;29.10;14.50;;;;;;5048252;28;20049;-66
2022/08/25 12:20:56;;;;;;;14.35;2.88;;;29.10;13.30;;;;;;5045426;28;20063;-65
2022/08/25 12:23:42;;;;;;;9.40;2.85;;;29.10;11.60;;;;;;5045711;28;20066;-66
2022/08/25 12:26:43;;;;;;;5.78;2.38;;;29.20;14.10;;;;;;5043912;28;20049;-85
2022/08/25 12:29:22;;;;;;;8.10;2.20;;;29.10;12.10;;;;;;5031825;28;20094;-91
2022/08/25 12:31:49;;;;;;;10.60;2.85;;;29.10;13.30;;;;;;5043001;28;20049;-66
2022/08/25 12:34:27;;;;;;;11.27;2.58;;;29.10;12.00;;;;;;5043329;28;20194;-65
2022/08/25 12:37:10;;;;;;;7.40;2.28;;;29.20;14.20;;;;;;5044598;28;20052;-93
2022/08/25 12:39:42;;;;;;;8.73;2.88;;;29.30;13.70;;;;;;5045309;28;20041;-80
2022/08/25 12:42:23;;;;;;;3.40;2.67;;;29.30;15.90;;;;;;5041107;28;20037;-66
2022/08/25 12:45:31;;;;;;;7.63;2.75;;;29.30;10.20;;;;;;5045129;28;20122;-65
2022/08/25 12:48:16;;;;;;;;;;;29.20;10.50;;;;;;5041867;28;20044;-65
2022/08/25 12:50:46;;;;;;;4.93;2.60;;;29.10;13.10;;;;;;5042334;28;19920;-66
2022/08/25 12:53:34;;;;;;;9.75;2.45;;;29.20;10.50;;;;;;5042427;28;20041;-66
2022/08/25 12:56:06;;;;;;;6.35;2.40;;;29.20;9.50;;;;;;5043822;28;20395;-95
2022/08/25 12:58:53;;;;;;;7.90;2.95;;;29.20;10.60;;;;;;5061315;28;20041;-67
2022/08/25 13:01:54;;;;;;;13.13;2.10;;;29.20;10.60;;;;;;5046292;28;20056;-89
2022/08/25 13:04:35;;;;;;;8.52;2.33;;;29.10;10.90;;;;;;5036018;28;20056;-65
2022/08/25 13:07:28;;;;;;;8.10;2.42;;;29.10;14.40;;;;;;5046033;28;20204;-65
2022/08/25 13:10:12;;;;;;;7.65;2.38;;;29.20;9.70;;;;;;5009691;28;20064;-65
2022/08/25 13:13:15;;;;;;;7.15;2.75;;;29.30;11.00;;;;;;5044254;28;20045;-65
2022/08/25 13:15:47;;;;;;;3.92;2.25;;;29.30;7.00;;;;;;5031753;28;20535;-66
2022/08/25 13:18:26;;;;;;;9.27;2.53;;;29.30;9.10;;;;;;5040514;28;20045;-66
2022/08/25 13:21:01;;;;;;;7.25;2.20;;;29.20;9.60;;;;;;5039259;28;20082;-65
2022/08/25 13:23:28;;;;;;;4.80;2.28;;;29.10;12.90;;;;;;5044163;28;20410;-66
2022/08/25 13:25:56;;;;;;;3.63;2.00;;;29.20;9.20;;;;;;5041903;28;20479;-68